sensor_id;sensor_type;location;lat;lon;timestamp;temperature;humidity
66213;SHT31;53015;50.046;8.238;2022-12-29T00:02:09;10.90;85.12
66213;SHT31;53015;50.046;8.238;2022-12-29T00:04:35;10.95;84.95
66213;SHT31;53015;50.046;8.238;2022-12-29T00:07:01;10.99;84.88
66213;SHT31;53015;50.046;8.238;2022-12-29T00:09:30;10.89;85.47
66213;SHT31;53015;50.046;8.238;2022-12-29T00:11:56;10.95;84.88
66213;SHT31;53015;50.046;8.238;2022-12-29T00:14:22;10.95;84.89
66213;SHT31;53015;50.046;8.238;2022-12-29T00:17:06;10.93;85.04
66213;SHT31;53015;50.046;8.238;2022-12-29T00:19:31;10.90;85.22
66213;SHT31;53015;50.046;8.238;2022-12-29T00:22:15;11.00;84.91
66213;SHT31;53015;50.046;8.238;2022-12-29T00:24:59;11.03;84.81
66213;SHT31;53015;50.046;8.238;2022-12-29T00:27:34;11.04;84.69
66213;SHT31;53015;50.046;8.238;2022-12-29T00:30:20;11.16;84.33
66213;SHT31;53015;50.046;8.238;2022-12-29T00:33:15;11.18;84.33
66213;SHT31;53015;50.046;8.238;2022-12-29T00:36:27;11.11;84.64
66213;SHT31;53015;50.046;8.238;2022-12-29T00:39:07;11.09;84.89
66213;SHT31;53015;50.046;8.238;2022-12-29T00:41:52;11.01;85.31
66213;SHT31;53015;50.046;8.238;2022-12-29T00:44:36;11.11;84.98
66213;SHT31;53015;50.046;8.238;2022-12-29T00:47:01;11.10;85.15
66213;SHT31;53015;50.046;8.238;2022-12-29T00:49:28;11.10;85.40
66213;SHT31;53015;50.046;8.238;2022-12-29T00:52:02;11.09;85.45
66213;SHT31;53015;50.046;8.238;2022-12-29T00:54:36;11.06;85.77
66213;SHT31;53015;50.046;8.238;2022-12-29T00:57:02;11.06;85.91
66213;SHT31;53015;50.046;8.238;2022-12-29T00:59:28;11.14;85.70
66213;SHT31;53015;50.046;8.238;2022-12-29T01:01:54;11.16;85.72
66213;SHT31;53015;50.046;8.238;2022-12-29T01:04:21;11.09;86.11
66213;SHT31;53015;50.046;8.238;2022-12-29T01:06:47;11.03;86.46
66213;SHT31;53015;50.046;8.238;2022-12-29T01:09:17;11.10;86.59
66213;SHT31;53015;50.046;8.238;2022-12-29T01:12:03;11.04;86.80
66213;SHT31;53015;50.046;8.238;2022-12-29T01:14:28;11.07;86.95
66213;SHT31;53015;50.046;8.238;2022-12-29T01:16:55;11.04;86.85
66213;SHT31;53015;50.046;8.238;2022-12-29T01:19:21;11.00;87.19
66213;SHT31;53015;50.046;8.238;2022-12-29T01:21:47;11.03;87.19
66213;SHT31;53015;50.046;8.238;2022-12-29T01:24:17;11.01;87.35
66213;SHT31;53015;50.046;8.238;2022-12-29T01:26:43;10.99;87.50
66213;SHT31;53015;50.046;8.238;2022-12-29T01:29:08;11.07;87.34
66213;SHT31;53015;50.046;8.238;2022-12-29T01:31:34;11.01;87.62
66213;SHT31;53015;50.046;8.238;2022-12-29T01:33:59;10.96;87.87
66213;SHT31;53015;50.046;8.238;2022-12-29T01:36:25;11.06;87.66
66213;SHT31;53015;50.046;8.238;2022-12-29T01:38:51;11.01;87.87
66213;SHT31;53015;50.046;8.238;2022-12-29T01:41:16;10.96;88.31
66213;SHT31;53015;50.046;8.238;2022-12-29T01:43:50;10.97;88.25
66213;SHT31;53015;50.046;8.238;2022-12-29T01:46:19;10.95;88.41
66213;SHT31;53015;50.046;8.238;2022-12-29T01:48:47;10.97;88.37
66213;SHT31;53015;50.046;8.238;2022-12-29T01:51:14;11.00;88.22
66213;SHT31;53015;50.046;8.238;2022-12-29T01:53:41;11.03;88.11
66213;SHT31;53015;50.046;8.238;2022-12-29T01:56:10;11.01;87.99
66213;SHT31;53015;50.046;8.238;2022-12-29T01:58:39;10.90;88.63
66213;SHT31;53015;50.046;8.238;2022-12-29T02:01:07;11.00;88.56
66213;SHT31;53015;50.046;8.238;2022-12-29T02:03:33;10.99;88.44
66213;SHT31;53015;50.046;8.238;2022-12-29T02:06:07;10.99;88.54
66213;SHT31;53015;50.046;8.238;2022-12-29T02:08:34;10.92;88.69
66213;SHT31;53015;50.046;8.238;2022-12-29T02:11:00;10.90;88.92
66213;SHT31;53015;50.046;8.238;2022-12-29T02:13:27;10.89;89.13
66213;SHT31;53015;50.046;8.238;2022-12-29T02:16:12;10.93;89.17
66213;SHT31;53015;50.046;8.238;2022-12-29T02:21:51;10.88;89.79
66213;SHT31;53015;50.046;8.238;2022-12-29T02:27:31;11.04;89.31
66213;SHT31;53015;50.046;8.238;2022-12-29T02:30:07;10.96;89.60
66213;SHT31;53015;50.046;8.238;2022-12-29T02:32:42;10.90;90.02
66213;SHT31;53015;50.046;8.238;2022-12-29T02:38:41;10.84;89.84
66213;SHT31;53015;50.046;8.238;2022-12-29T02:43:55;10.89;89.65
66213;SHT31;53015;50.046;8.238;2022-12-29T02:51:58;10.92;89.65
66213;SHT31;53015;50.046;8.238;2022-12-29T02:54:25;10.83;89.83
66213;SHT31;53015;50.046;8.238;2022-12-29T02:57:30;10.95;89.45
66213;SHT31;53015;50.046;8.238;2022-12-29T03:00:11;10.97;89.88
66213;SHT31;53015;50.046;8.238;2022-12-29T03:02:54;10.96;89.88
66213;SHT31;53015;50.046;8.238;2022-12-29T03:11:12;11.07;89.55
66213;SHT31;53015;50.046;8.238;2022-12-29T03:14:02;11.07;89.39
66213;SHT31;53015;50.046;8.238;2022-12-29T03:16:55;11.07;89.36
66213;SHT31;53015;50.046;8.238;2022-12-29T03:19:38;11.07;89.19
66213;SHT31;53015;50.046;8.238;2022-12-29T03:22:17;11.03;89.20
66213;SHT31;53015;50.046;8.238;2022-12-29T03:27:49;11.11;88.56
66213;SHT31;53015;50.046;8.238;2022-12-29T03:30:15;11.10;88.42
66213;SHT31;53015;50.046;8.238;2022-12-29T03:32:46;11.11;88.20
66213;SHT31;53015;50.046;8.238;2022-12-29T03:35:15;11.13;88.14
66213;SHT31;53015;50.046;8.238;2022-12-29T03:37:45;11.18;88.36
66213;SHT31;53015;50.046;8.238;2022-12-29T03:40:14;11.20;88.11
66213;SHT31;53015;50.046;8.238;2022-12-29T03:42:40;11.18;88.19
66213;SHT31;53015;50.046;8.238;2022-12-29T03:45:06;11.14;88.30
66213;SHT31;53015;50.046;8.238;2022-12-29T03:47:32;11.20;87.52
66213;SHT31;53015;50.046;8.238;2022-12-29T03:49:58;11.13;87.79
66213;SHT31;53015;50.046;8.238;2022-12-29T03:52:23;11.21;87.40
66213;SHT31;53015;50.046;8.238;2022-12-29T03:54:49;11.26;86.72
66213;SHT31;53015;50.046;8.238;2022-12-29T03:57:14;11.24;86.90
66213;SHT31;53015;50.046;8.238;2022-12-29T03:59:39;11.21;86.92
66213;SHT31;53015;50.046;8.238;2022-12-29T04:02:05;11.20;86.44
66213;SHT31;53015;50.046;8.238;2022-12-29T04:04:30;11.27;86.63
66213;SHT31;53015;50.046;8.238;2022-12-29T04:06:56;11.26;85.86
66213;SHT31;53015;50.046;8.238;2022-12-29T04:09:21;11.30;86.21
66213;SHT31;53015;50.046;8.238;2022-12-29T04:11:46;11.31;86.13
66213;SHT31;53015;50.046;8.238;2022-12-29T04:14:12;11.30;85.87
66213;SHT31;53015;50.046;8.238;2022-12-29T04:16:37;11.35;86.05
66213;SHT31;53015;50.046;8.238;2022-12-29T04:19:05;11.44;84.93
66213;SHT31;53015;50.046;8.238;2022-12-29T04:21:30;11.38;85.11
66213;SHT31;53015;50.046;8.238;2022-12-29T04:23:56;11.44;85.04
66213;SHT31;53015;50.046;8.238;2022-12-29T04:26:22;11.48;84.47
66213;SHT31;53015;50.046;8.238;2022-12-29T04:28:47;11.45;84.33
66213;SHT31;53015;50.046;8.238;2022-12-29T04:31:12;11.45;84.49
66213;SHT31;53015;50.046;8.238;2022-12-29T04:33:38;11.52;84.37
66213;SHT31;53015;50.046;8.238;2022-12-29T04:36:03;11.52;84.03
66213;SHT31;53015;50.046;8.238;2022-12-29T04:38:29;11.59;83.72
66213;SHT31;53015;50.046;8.238;2022-12-29T04:40:54;11.68;83.40
66213;SHT31;53015;50.046;8.238;2022-12-29T04:43:20;11.64;83.14
66213;SHT31;53015;50.046;8.238;2022-12-29T04:45:47;11.68;83.14
66213;SHT31;53015;50.046;8.238;2022-12-29T04:48:13;11.65;82.47
66213;SHT31;53015;50.046;8.238;2022-12-29T04:50:39;11.68;82.69
66213;SHT31;53015;50.046;8.238;2022-12-29T04:53:05;11.68;82.70
66213;SHT31;53015;50.046;8.238;2022-12-29T04:55:30;11.68;82.35
66213;SHT31;53015;50.046;8.238;2022-12-29T04:57:56;11.66;82.51
66213;SHT31;53015;50.046;8.238;2022-12-29T05:00:22;11.72;82.51
66213;SHT31;53015;50.046;8.238;2022-12-29T05:02:47;11.72;82.83
66213;SHT31;53015;50.046;8.238;2022-12-29T05:05:13;11.72;82.93
66213;SHT31;53015;50.046;8.238;2022-12-29T05:07:38;11.64;83.15
66213;SHT31;53015;50.046;8.238;2022-12-29T05:10:04;11.69;83.17
66213;SHT31;53015;50.046;8.238;2022-12-29T05:12:31;11.66;83.91
66213;SHT31;53015;50.046;8.238;2022-12-29T05:14:56;11.55;84.89
66213;SHT31;53015;50.046;8.238;2022-12-29T05:17:22;11.54;85.44
66213;SHT31;53015;50.046;8.238;2022-12-29T05:19:47;11.48;86.22
66213;SHT31;53015;50.046;8.238;2022-12-29T05:22:12;11.42;86.46
66213;SHT31;53015;50.046;8.238;2022-12-29T05:24:38;11.41;87.06
66213;SHT31;53015;50.046;8.238;2022-12-29T05:27:03;11.31;87.56
66213;SHT31;53015;50.046;8.238;2022-12-29T05:29:29;11.27;87.72
66213;SHT31;53015;50.046;8.238;2022-12-29T05:31:54;11.30;87.77
66213;SHT31;53015;50.046;8.238;2022-12-29T05:34:19;11.26;87.75
66213;SHT31;53015;50.046;8.238;2022-12-29T05:36:45;11.30;87.39
66213;SHT31;53015;50.046;8.238;2022-12-29T05:39:10;11.17;87.83
66213;SHT31;53015;50.046;8.238;2022-12-29T05:41:36;11.26;87.44
66213;SHT31;53015;50.046;8.238;2022-12-29T05:44:01;11.26;87.35
66213;SHT31;53015;50.046;8.238;2022-12-29T05:46:27;11.30;87.42
66213;SHT31;53015;50.046;8.238;2022-12-29T05:48:52;11.30;87.25
66213;SHT31;53015;50.046;8.238;2022-12-29T05:51:18;11.34;87.09
66213;SHT31;53015;50.046;8.238;2022-12-29T05:53:43;11.31;87.05
66213;SHT31;53015;50.046;8.238;2022-12-29T05:56:08;11.28;86.70
66213;SHT31;53015;50.046;8.238;2022-12-29T05:58:34;11.28;87.12
66213;SHT31;53015;50.046;8.238;2022-12-29T06:00:59;11.20;86.97
66213;SHT31;53015;50.046;8.238;2022-12-29T06:03:24;11.21;86.97
66213;SHT31;53015;50.046;8.238;2022-12-29T06:05:50;11.28;87.09
66213;SHT31;53015;50.046;8.238;2022-12-29T06:08:15;11.30;87.13
66213;SHT31;53015;50.046;8.238;2022-12-29T06:10:40;11.38;86.12
66213;SHT31;53015;50.046;8.238;2022-12-29T06:13:06;11.35;86.25
66213;SHT31;53015;50.046;8.238;2022-12-29T06:15:32;11.32;85.83
66213;SHT31;53015;50.046;8.238;2022-12-29T06:17:58;11.38;86.34
66213;SHT31;53015;50.046;8.238;2022-12-29T06:20:23;11.48;85.32
66213;SHT31;53015;50.046;8.238;2022-12-29T06:22:49;11.44;85.67
66213;SHT31;53015;50.046;8.238;2022-12-29T06:25:14;11.48;85.49
66213;SHT31;53015;50.046;8.238;2022-12-29T06:27:40;11.48;85.58
66213;SHT31;53015;50.046;8.238;2022-12-29T06:30:06;11.44;85.54
66213;SHT31;53015;50.046;8.238;2022-12-29T06:32:31;11.42;85.94
66213;SHT31;53015;50.046;8.238;2022-12-29T06:34:56;11.39;85.98
66213;SHT31;53015;50.046;8.238;2022-12-29T06:37:22;11.41;85.83
66213;SHT31;53015;50.046;8.238;2022-12-29T06:39:47;11.52;85.35
66213;SHT31;53015;50.046;8.238;2022-12-29T06:42:13;11.51;86.16
66213;SHT31;53015;50.046;8.238;2022-12-29T06:44:38;11.41;86.58
66213;SHT31;53015;50.046;8.238;2022-12-29T06:47:03;11.35;87.25
66213;SHT31;53015;50.046;8.238;2022-12-29T06:49:29;11.31;88.02
66213;SHT31;53015;50.046;8.238;2022-12-29T06:51:54;11.24;88.74
66213;SHT31;53015;50.046;8.238;2022-12-29T06:54:20;11.24;88.52
66213;SHT31;53015;50.046;8.238;2022-12-29T06:56:45;11.18;88.32
66213;SHT31;53015;50.046;8.238;2022-12-29T06:59:11;11.14;88.27
66213;SHT31;53015;50.046;8.238;2022-12-29T07:01:36;11.23;88.04
66213;SHT31;53015;50.046;8.238;2022-12-29T07:04:02;11.26;87.46
66213;SHT31;53015;50.046;8.238;2022-12-29T07:06:28;11.30;87.14
66213;SHT31;53015;50.046;8.238;2022-12-29T07:08:54;11.41;86.38
66213;SHT31;53015;50.046;8.238;2022-12-29T07:11:21;11.44;86.06
66213;SHT31;53015;50.046;8.238;2022-12-29T07:13:46;11.41;85.64
66213;SHT31;53015;50.046;8.238;2022-12-29T07:16:12;11.48;84.79
66213;SHT31;53015;50.046;8.238;2022-12-29T07:18:37;11.45;84.57
66213;SHT31;53015;50.046;8.238;2022-12-29T07:21:03;11.50;84.86
66213;SHT31;53015;50.046;8.238;2022-12-29T07:23:28;11.55;84.10
66213;SHT31;53015;50.046;8.238;2022-12-29T07:26:05;11.69;82.38
66213;SHT31;53015;50.046;8.238;2022-12-29T07:28:31;11.76;82.78
66213;SHT31;53015;50.046;8.238;2022-12-29T07:30:58;11.66;83.16
66213;SHT31;53015;50.046;8.238;2022-12-29T07:33:23;11.75;82.24
66213;SHT31;53015;50.046;8.238;2022-12-29T07:35:48;11.83;82.42
66213;SHT31;53015;50.046;8.238;2022-12-29T07:38:14;11.78;82.02
66213;SHT31;53015;50.046;8.238;2022-12-29T07:40:40;11.90;81.54
66213;SHT31;53015;50.046;8.238;2022-12-29T07:43:05;11.87;82.25
66213;SHT31;53015;50.046;8.238;2022-12-29T07:45:31;11.86;82.13
66213;SHT31;53015;50.046;8.238;2022-12-29T07:47:56;11.87;81.74
66213;SHT31;53015;50.046;8.238;2022-12-29T07:50:21;11.92;81.19
66213;SHT31;53015;50.046;8.238;2022-12-29T07:52:47;11.94;81.44
66213;SHT31;53015;50.046;8.238;2022-12-29T07:55:16;11.92;81.56
66213;SHT31;53015;50.046;8.238;2022-12-29T07:57:42;11.90;82.08
66213;SHT31;53015;50.046;8.238;2022-12-29T08:00:08;11.96;82.07
66213;SHT31;53015;50.046;8.238;2022-12-29T08:02:34;11.94;82.41
66213;SHT31;53015;50.046;8.238;2022-12-29T08:05:00;11.97;82.25
66213;SHT31;53015;50.046;8.238;2022-12-29T08:07:25;11.89;82.54
66213;SHT31;53015;50.046;8.238;2022-12-29T08:09:51;11.89;82.29
66213;SHT31;53015;50.046;8.238;2022-12-29T08:12:16;11.89;82.40
66213;SHT31;53015;50.046;8.238;2022-12-29T08:14:42;11.97;82.13
66213;SHT31;53015;50.046;8.238;2022-12-29T08:17:08;11.90;82.37
66213;SHT31;53015;50.046;8.238;2022-12-29T08:19:33;11.97;82.48
66213;SHT31;53015;50.046;8.238;2022-12-29T08:21:59;11.97;83.05
66213;SHT31;53015;50.046;8.238;2022-12-29T08:24:24;11.93;82.94
66213;SHT31;53015;50.046;8.238;2022-12-29T08:26:49;11.89;82.81
66213;SHT31;53015;50.046;8.238;2022-12-29T08:29:15;11.90;83.19
66213;SHT31;53015;50.046;8.238;2022-12-29T08:31:40;11.92;83.47
66213;SHT31;53015;50.046;8.238;2022-12-29T08:34:06;11.90;83.20
66213;SHT31;53015;50.046;8.238;2022-12-29T08:36:31;11.90;83.45
66213;SHT31;53015;50.046;8.238;2022-12-29T08:38:57;11.89;83.68
66213;SHT31;53015;50.046;8.238;2022-12-29T08:41:22;11.83;84.95
66213;SHT31;53015;50.046;8.238;2022-12-29T08:43:49;11.68;86.88
66213;SHT31;53015;50.046;8.238;2022-12-29T08:46:14;11.52;87.58
66213;SHT31;53015;50.046;8.238;2022-12-29T08:48:40;11.50;88.49
66213;SHT31;53015;50.046;8.238;2022-12-29T08:51:05;11.47;88.67
66213;SHT31;53015;50.046;8.238;2022-12-29T08:53:31;11.45;89.09
66213;SHT31;53015;50.046;8.238;2022-12-29T08:55:58;11.31;89.86
66213;SHT31;53015;50.046;8.238;2022-12-29T08:58:25;11.21;90.04
66213;SHT31;53015;50.046;8.238;2022-12-29T09:00:55;11.17;90.48
66213;SHT31;53015;50.046;8.238;2022-12-29T09:03:22;11.17;90.61
66213;SHT31;53015;50.046;8.238;2022-12-29T09:05:49;11.17;90.00
66213;SHT31;53015;50.046;8.238;2022-12-29T09:08:15;11.16;90.09
66213;SHT31;53015;50.046;8.238;2022-12-29T09:10:42;11.13;90.27
66213;SHT31;53015;50.046;8.238;2022-12-29T09:13:07;11.14;90.48
66213;SHT31;53015;50.046;8.238;2022-12-29T09:15:33;11.16;90.58
66213;SHT31;53015;50.046;8.238;2022-12-29T09:17:58;11.14;90.76
66213;SHT31;53015;50.046;8.238;2022-12-29T09:20:24;11.16;91.15
66213;SHT31;53015;50.046;8.238;2022-12-29T09:22:49;11.30;90.44
66213;SHT31;53015;50.046;8.238;2022-12-29T09:25:15;11.28;90.13
66213;SHT31;53015;50.046;8.238;2022-12-29T09:27:41;11.26;90.71
66213;SHT31;53015;50.046;8.238;2022-12-29T09:30:09;11.24;91.17
66213;SHT31;53015;50.046;8.238;2022-12-29T09:32:35;11.16;91.47
66213;SHT31;53015;50.046;8.238;2022-12-29T09:35:01;11.20;91.78
66213;SHT31;53015;50.046;8.238;2022-12-29T09:37:26;11.26;91.86
66213;SHT31;53015;50.046;8.238;2022-12-29T09:39:52;11.28;92.03
66213;SHT31;53015;50.046;8.238;2022-12-29T09:47:16;11.30;90.82
66213;SHT31;53015;50.046;8.238;2022-12-29T09:52:23;11.32;90.73
66213;SHT31;53015;50.046;8.238;2022-12-29T09:59:59;11.17;91.83
66213;SHT31;53015;50.046;8.238;2022-12-29T10:02:41;11.13;91.79
66213;SHT31;53015;50.046;8.238;2022-12-29T10:05:35;11.06;91.78
66213;SHT31;53015;50.046;8.238;2022-12-29T10:11:19;11.21;91.37
66213;SHT31;53015;50.046;8.238;2022-12-29T10:13:57;11.26;89.94
66213;SHT31;53015;50.046;8.238;2022-12-29T10:20:12;11.32;88.81
66213;SHT31;53015;50.046;8.238;2022-12-29T10:25:25;11.21;88.27
66213;SHT31;53015;50.046;8.238;2022-12-29T10:27:53;11.14;87.90
66213;SHT31;53015;50.046;8.238;2022-12-29T10:30:20;11.07;87.35
66213;SHT31;53015;50.046;8.238;2022-12-29T10:32:51;11.06;87.00
66213;SHT31;53015;50.046;8.238;2022-12-29T10:35:23;11.10;86.24
66213;SHT31;53015;50.046;8.238;2022-12-29T10:37:51;11.09;86.26
66213;SHT31;53015;50.046;8.238;2022-12-29T10:40:48;11.17;84.83
66213;SHT31;53015;50.046;8.238;2022-12-29T10:43:26;11.21;84.86
66213;SHT31;53015;50.046;8.238;2022-12-29T10:45:53;11.28;84.45
66213;SHT31;53015;50.046;8.238;2022-12-29T10:48:25;11.35;84.66
66213;SHT31;53015;50.046;8.238;2022-12-29T10:50:56;11.41;84.03
66213;SHT31;53015;50.046;8.238;2022-12-29T10:53:25;11.55;83.50
66213;SHT31;53015;50.046;8.238;2022-12-29T10:55:53;11.65;82.78
66213;SHT31;53015;50.046;8.238;2022-12-29T10:58:20;11.72;82.31
66213;SHT31;53015;50.046;8.238;2022-12-29T11:00:51;11.79;82.56
66213;SHT31;53015;50.046;8.238;2022-12-29T11:06:05;12.13;81.43
66213;SHT31;53015;50.046;8.238;2022-12-29T11:08:43;12.23;80.79
66213;SHT31;53015;50.046;8.238;2022-12-29T11:11:11;12.29;80.80
66213;SHT31;53015;50.046;8.238;2022-12-29T11:13:51;12.42;80.02
66213;SHT31;53015;50.046;8.238;2022-12-29T11:16:31;12.48;80.47
66213;SHT31;53015;50.046;8.238;2022-12-29T11:18:57;12.49;79.51
66213;SHT31;53015;50.046;8.238;2022-12-29T11:21:35;12.47;79.41
66213;SHT31;53015;50.046;8.238;2022-12-29T11:24:19;12.47;78.96
66213;SHT31;53015;50.046;8.238;2022-12-29T11:26:44;12.51;79.94
66213;SHT31;53015;50.046;8.238;2022-12-29T11:31:50;12.64;79.12
66213;SHT31;53015;50.046;8.238;2022-12-29T11:37:00;12.79;77.75
66213;SHT31;53015;50.046;8.238;2022-12-29T11:41:55;12.92;76.53
66213;SHT31;53015;50.046;8.238;2022-12-29T11:44:21;12.93;77.72
66213;SHT31;53015;50.046;8.238;2022-12-29T11:46:50;12.93;76.84
66213;SHT31;53015;50.046;8.238;2022-12-29T11:49:24;13.04;77.24
66213;SHT31;53015;50.046;8.238;2022-12-29T11:51:51;13.09;77.05
66213;SHT31;53015;50.046;8.238;2022-12-29T11:54:29;13.22;76.31
66213;SHT31;53015;50.046;8.238;2022-12-29T11:56:57;13.24;77.44
66213;SHT31;53015;50.046;8.238;2022-12-29T11:59:34;13.20;75.91
66213;SHT31;53015;50.046;8.238;2022-12-29T12:02:13;13.27;76.40
66213;SHT31;53015;50.046;8.238;2022-12-29T12:04:43;13.33;75.87
66213;SHT31;53015;50.046;8.238;2022-12-29T12:07:16;13.27;75.10
66213;SHT31;53015;50.046;8.238;2022-12-29T12:09:47;13.31;74.30
66213;SHT31;53015;50.046;8.238;2022-12-29T12:12:41;13.28;75.03
66213;SHT31;53015;50.046;8.238;2022-12-29T12:15:17;13.14;75.92
66213;SHT31;53015;50.046;8.238;2022-12-29T12:17:53;13.22;76.41
66213;SHT31;53015;50.046;8.238;2022-12-29T12:20:32;13.09;75.45
66213;SHT31;53015;50.046;8.238;2022-12-29T12:23:25;13.06;75.97
66213;SHT31;53015;50.046;8.238;2022-12-29T12:29:01;12.89;76.20
66213;SHT31;53015;50.046;8.238;2022-12-29T12:31:55;13.06;75.80
66213;SHT31;53015;50.046;8.238;2022-12-29T12:34:29;13.03;75.25
66213;SHT31;53015;50.046;8.238;2022-12-29T12:42:25;12.67;77.30
66213;SHT31;53015;50.046;8.238;2022-12-29T12:56:41;12.36;78.38
66213;SHT31;53015;50.046;8.238;2022-12-29T13:01:48;12.62;77.43
66213;SHT31;53015;50.046;8.238;2022-12-29T13:04:43;12.82;77.57
66213;SHT31;53015;50.046;8.238;2022-12-29T13:07:43;12.92;76.73
66213;SHT31;53015;50.046;8.238;2022-12-29T13:10:22;12.96;76.72
66213;SHT31;53015;50.046;8.238;2022-12-29T13:12:55;12.97;78.13
66213;SHT31;53015;50.046;8.238;2022-12-29T13:21:34;13.06;76.07
66213;SHT31;53015;50.046;8.238;2022-12-29T13:26:50;12.82;76.61
66213;SHT31;53015;50.046;8.238;2022-12-29T13:29:39;12.81;76.46
66213;SHT31;53015;50.046;8.238;2022-12-29T13:35:10;12.79;76.59
66213;SHT31;53015;50.046;8.238;2022-12-29T13:37:49;12.85;76.62
66213;SHT31;53015;50.046;8.238;2022-12-29T13:40:18;12.97;76.35
66213;SHT31;53015;50.046;8.238;2022-12-29T13:42:46;13.12;75.50
66213;SHT31;53015;50.046;8.238;2022-12-29T13:45:18;13.09;75.86
66213;SHT31;53015;50.046;8.238;2022-12-29T13:50:21;12.84;74.53
66213;SHT31;53015;50.046;8.238;2022-12-29T13:55:29;12.55;73.99
66213;SHT31;53015;50.046;8.238;2022-12-29T14:00:54;12.40;74.41
66213;SHT31;53015;50.046;8.238;2022-12-29T14:03:49;12.31;75.80
66213;SHT31;53015;50.046;8.238;2022-12-29T14:08:41;12.09;76.51
66213;SHT31;53015;50.046;8.238;2022-12-29T14:11:10;12.00;77.00
66213;SHT31;53015;50.046;8.238;2022-12-29T14:13:41;11.97;77.05
66213;SHT31;53015;50.046;8.238;2022-12-29T14:16:12;11.86;77.58
66213;SHT31;53015;50.046;8.238;2022-12-29T14:18:46;12.02;76.95
66213;SHT31;53015;50.046;8.238;2022-12-29T14:21:23;12.14;76.83
66213;SHT31;53015;50.046;8.238;2022-12-29T14:23:53;12.27;75.83
66213;SHT31;53015;50.046;8.238;2022-12-29T14:28:56;12.36;74.29
66213;SHT31;53015;50.046;8.238;2022-12-29T14:31:40;12.33;74.78
66213;SHT31;53015;50.046;8.238;2022-12-29T14:37:02;12.38;75.19
66213;SHT31;53015;50.046;8.238;2022-12-29T14:39:47;12.38;75.04
66213;SHT31;53015;50.046;8.238;2022-12-29T14:42:15;12.34;75.45
66213;SHT31;53015;50.046;8.238;2022-12-29T14:44:53;12.42;74.68
66213;SHT31;53015;50.046;8.238;2022-12-29T14:47:33;12.34;74.62
66213;SHT31;53015;50.046;8.238;2022-12-29T14:52:47;12.04;74.93
66213;SHT31;53015;50.046;8.238;2022-12-29T14:57:51;11.78;74.47
66213;SHT31;53015;50.046;8.238;2022-12-29T15:00:27;11.65;75.00
66213;SHT31;53015;50.046;8.238;2022-12-29T15:03:04;11.58;74.18
66213;SHT31;53015;50.046;8.238;2022-12-29T15:05:51;11.42;75.61
66213;SHT31;53015;50.046;8.238;2022-12-29T15:08:21;11.35;75.34
66213;SHT31;53015;50.046;8.238;2022-12-29T15:10:55;11.28;75.67
66213;SHT31;53015;50.046;8.238;2022-12-29T15:13:24;11.27;75.49
66213;SHT31;53015;50.046;8.238;2022-12-29T15:15:50;11.13;76.10
66213;SHT31;53015;50.046;8.238;2022-12-29T15:18:26;11.16;75.10
66213;SHT31;53015;50.046;8.238;2022-12-29T15:20:56;11.14;75.45
66213;SHT31;53015;50.046;8.238;2022-12-29T15:23:23;10.97;76.82
66213;SHT31;53015;50.046;8.238;2022-12-29T15:26:47;10.93;76.17
66213;SHT31;53015;50.046;8.238;2022-12-29T15:29:30;10.80;77.31
66213;SHT31;53015;50.046;8.238;2022-12-29T15:31:57;10.72;77.45
66213;SHT31;53015;50.046;8.238;2022-12-29T15:34:24;10.68;77.99
66213;SHT31;53015;50.046;8.238;2022-12-29T15:36:50;10.72;78.19
66213;SHT31;53015;50.046;8.238;2022-12-29T15:41:50;10.83;78.87
66213;SHT31;53015;50.046;8.238;2022-12-29T15:44:21;10.75;79.51
66213;SHT31;53015;50.046;8.238;2022-12-29T15:46:48;10.65;79.60
66213;SHT31;53015;50.046;8.238;2022-12-29T15:49:14;10.73;78.51
66213;SHT31;53015;50.046;8.238;2022-12-29T15:51:40;10.77;79.17
66213;SHT31;53015;50.046;8.238;2022-12-29T15:54:12;10.95;77.30
66213;SHT31;53015;50.046;8.238;2022-12-29T15:56:40;11.03;77.36
66213;SHT31;53015;50.046;8.238;2022-12-29T15:59:23;11.11;77.34
66213;SHT31;53015;50.046;8.238;2022-12-29T16:01:49;11.06;77.92
66213;SHT31;53015;50.046;8.238;2022-12-29T16:04:15;11.07;77.83
66213;SHT31;53015;50.046;8.238;2022-12-29T16:06:44;11.07;77.39
66213;SHT31;53015;50.046;8.238;2022-12-29T16:09:29;11.14;77.51
66213;SHT31;53015;50.046;8.238;2022-12-29T16:11:56;11.13;77.05
66213;SHT31;53015;50.046;8.238;2022-12-29T16:14:30;11.13;76.82
66213;SHT31;53015;50.046;8.238;2022-12-29T16:17:00;11.16;76.36
66213;SHT31;53015;50.046;8.238;2022-12-29T16:19:29;11.17;77.55
66213;SHT31;53015;50.046;8.238;2022-12-29T16:21:58;11.13;77.03
66213;SHT31;53015;50.046;8.238;2022-12-29T16:24:26;11.07;77.27
66213;SHT31;53015;50.046;8.238;2022-12-29T16:27:06;11.07;77.34
66213;SHT31;53015;50.046;8.238;2022-12-29T16:29:34;11.04;76.86
66213;SHT31;53015;50.046;8.238;2022-12-29T16:32:01;10.97;77.25
66213;SHT31;53015;50.046;8.238;2022-12-29T16:34:29;10.97;77.08
66213;SHT31;53015;50.046;8.238;2022-12-29T16:36:57;10.93;77.34
66213;SHT31;53015;50.046;8.238;2022-12-29T16:39:35;10.83;78.20
66213;SHT31;53015;50.046;8.238;2022-12-29T16:42:33;10.77;77.51
66213;SHT31;53015;50.046;8.238;2022-12-29T16:45:22;10.71;78.53
66213;SHT31;53015;50.046;8.238;2022-12-29T16:48:15;10.63;78.56
66213;SHT31;53015;50.046;8.238;2022-12-29T16:50:43;10.58;78.86
66213;SHT31;53015;50.046;8.238;2022-12-29T16:53:19;10.54;78.16
66213;SHT31;53015;50.046;8.238;2022-12-29T16:55:46;10.46;78.64
66213;SHT31;53015;50.046;8.238;2022-12-29T16:58:16;10.44;78.22
66213;SHT31;53015;50.046;8.238;2022-12-29T17:00:45;10.38;79.53
66213;SHT31;53015;50.046;8.238;2022-12-29T17:03:11;10.48;78.67
66213;SHT31;53015;50.046;8.238;2022-12-29T17:05:36;10.42;79.79
66213;SHT31;53015;50.046;8.238;2022-12-29T17:08:02;10.42;78.75
66213;SHT31;53015;50.046;8.238;2022-12-29T17:10:28;10.40;79.42
66213;SHT31;53015;50.046;8.238;2022-12-29T17:12:54;10.35;79.31
66213;SHT31;53015;50.046;8.238;2022-12-29T17:15:23;10.31;79.88
66213;SHT31;53015;50.046;8.238;2022-12-29T17:17:53;10.30;79.54
66213;SHT31;53015;50.046;8.238;2022-12-29T17:20:21;10.16;80.06
66213;SHT31;53015;50.046;8.238;2022-12-29T17:22:48;10.21;80.00
66213;SHT31;53015;50.046;8.238;2022-12-29T17:25:15;10.17;80.32
66213;SHT31;53015;50.046;8.238;2022-12-29T17:27:44;10.03;79.93
66213;SHT31;53015;50.046;8.238;2022-12-29T17:30:13;10.04;80.39
66213;SHT31;53015;50.046;8.238;2022-12-29T17:32:39;9.94;80.32
66213;SHT31;53015;50.046;8.238;2022-12-29T17:35:13;9.90;81.00
66213;SHT31;53015;50.046;8.238;2022-12-29T17:37:38;9.78;81.15
66213;SHT31;53015;50.046;8.238;2022-12-29T17:40:09;9.78;80.95
66213;SHT31;53015;50.046;8.238;2022-12-29T17:42:42;9.63;81.17
66213;SHT31;53015;50.046;8.238;2022-12-29T17:45:13;9.66;81.45
66213;SHT31;53015;50.046;8.238;2022-12-29T17:47:38;9.82;80.98